createdAt,value
2023-03-08T00:01:13.229Z,98871.44
2023-03-08T00:03:40.613Z,98877.72
2023-03-08T00:06:09.285Z,98881.41
2023-03-08T00:08:35.821Z,98881.50
2023-03-08T00:11:06.751Z,98883.34
2023-03-08T00:13:33.596Z,98876.53
2023-03-08T00:16:04.822Z,98882.75
2023-03-08T00:18:31.742Z,98885.44
2023-03-08T00:21:06.656Z,98901.19
2023-03-08T00:23:33.674Z,98897.81
2023-03-08T00:26:00.221Z,98900.47
2023-03-08T00:28:27.105Z,98901.44
2023-03-08T00:31:02.751Z,98896.28
2023-03-08T00:33:30.681Z,98903.28
2023-03-08T00:36:03.061Z,98911.06
2023-03-08T00:38:32.456Z,98904.09
2023-03-08T00:40:59.315Z,98912.00
2023-03-08T00:43:26.616Z,98912.84
2023-03-08T00:45:53.438Z,98914.59
2023-03-08T00:48:22.122Z,98919.84
2023-03-08T00:50:48.826Z,98922.50
2023-03-08T00:53:15.578Z,98913.84
2023-03-08T00:55:52.479Z,98921.59
2023-03-08T00:58:20.076Z,98914.66
2023-03-08T01:00:46.923Z,98914.59
2023-03-08T01:03:13.502Z,98914.59
2023-03-08T01:05:41.374Z,98921.56
2023-03-08T01:08:09.196Z,98920.75
2023-03-08T01:10:36.244Z,98912.06
2023-03-08T01:13:03.706Z,98924.31
2023-03-08T01:15:30.482Z,98916.56
2023-03-08T01:17:57.020Z,98927.00
2023-03-08T01:20:23.513Z,98920.97
2023-03-08T01:22:49.978Z,98929.72
2023-03-08T01:25:16.766Z,98917.59
2023-03-08T01:27:43.236Z,98921.13
2023-03-08T01:30:10.489Z,98925.53
2023-03-08T01:32:37.065Z,98922.09
2023-03-08T01:35:05.378Z,98920.41
2023-03-08T01:37:32.623Z,98915.22
2023-03-08T01:39:59.083Z,98920.47
2023-03-08T01:42:26.778Z,98910.94
2023-03-08T01:45:03.266Z,98910.03
2023-03-08T01:47:36.121Z,98916.09
2023-03-08T01:50:17.220Z,98906.50
2023-03-08T01:52:48.568Z,98904.81
2023-03-08T01:55:17.302Z,98903.97
2023-03-08T01:57:48.243Z,98894.38
2023-03-08T02:00:22.827Z,98897.00
2023-03-08T02:03:01.364Z,98895.28
2023-03-08T02:05:29.517Z,98892.69
2023-03-08T02:08:03.273Z,98893.59
2023-03-08T02:10:35.353Z,98891.00
2023-03-08T02:13:03.927Z,98888.44
2023-03-08T02:15:31.072Z,98884.94
2023-03-08T02:17:57.985Z,98879.78
2023-03-08T02:20:35.634Z,98888.47
2023-03-08T02:23:12.518Z,98892.88
2023-03-08T02:25:42.290Z,98893.78
2023-03-08T02:28:09.698Z,98885.09
2023-03-08T02:30:38.403Z,98899.03
2023-03-08T02:33:04.990Z,98885.16
2023-03-08T02:35:31.569Z,98893.00
2023-03-08T02:37:58.078Z,98896.47
2023-03-08T02:40:25.278Z,98890.41
2023-03-08T02:42:53.423Z,98883.44
2023-03-08T02:45:20.240Z,98886.91
2023-03-08T02:47:46.766Z,98891.22
2023-03-08T02:50:13.539Z,98888.59
2023-03-08T02:52:40.036Z,98890.38
2023-03-08T02:55:07.227Z,98893.78
2023-03-08T02:57:33.844Z,98886.75
2023-03-08T03:00:00.969Z,98890.19
2023-03-08T03:02:28.256Z,98893.63
2023-03-08T03:04:55.288Z,98895.41
2023-03-08T03:07:21.924Z,98886.72
2023-03-08T03:09:49.768Z,98878.03
2023-03-08T03:12:17.344Z,98873.72
2023-03-08T03:14:43.998Z,98881.63
2023-03-08T03:17:10.792Z,98879.94
2023-03-08T03:19:38.425Z,98883.44
2023-03-08T03:22:05.018Z,98876.53
2023-03-08T03:24:31.866Z,98879.25
2023-03-08T03:26:59.804Z,98879.38
2023-03-08T03:29:30.705Z,98881.22
2023-03-08T03:32:07.256Z,98874.34
2023-03-08T03:34:34.231Z,98870.97
2023-03-08T03:37:00.922Z,98880.56
2023-03-08T03:39:30.606Z,98877.09
2023-03-08T03:41:57.128Z,98882.38
2023-03-08T03:44:24.059Z,98881.56
2023-03-08T03:46:50.977Z,98884.19
2023-03-08T03:49:23.010Z,98875.53
2023-03-08T03:51:49.686Z,98876.41
2023-03-08T03:54:22.122Z,98872.09
2023-03-08T03:56:48.927Z,98879.09
2023-03-08T03:59:17.800Z,98878.25
2023-03-08T04:01:45.380Z,98877.41
2023-03-08T04:04:19.589Z,98882.63
2023-03-08T04:06:47.598Z,98873.81
2023-03-08T04:09:18.558Z,98880.69
2023-03-08T04:11:51.569Z,98880.50
2023-03-08T04:14:20.894Z,98875.94
2023-03-08T04:16:48.751Z,98883.59
2023-03-08T04:19:25.703Z,98881.69
2023-03-08T04:21:55.511Z,98877.19
2023-03-08T04:24:24.876Z,98881.38
2023-03-08T04:26:55.600Z,98879.53
2023-03-08T04:29:22.986Z,98874.19
2023-03-08T04:31:49.622Z,98871.44
2023-03-08T04:34:19.110Z,98874.78
2023-03-08T04:36:48.696Z,98872.06
2023-03-08T04:39:15.286Z,98873.69
2023-03-08T04:41:42.035Z,98875.34
2023-03-08T04:44:21.955Z,98873.50
2023-03-08T04:46:51.130Z,98873.38
2023-03-08T04:49:27.297Z,98868.13
2023-03-08T04:51:59.338Z,98862.84
2023-03-08T04:54:27.418Z,98867.13
2023-03-08T04:57:00.478Z,98860.09
2023-03-08T04:59:26.971Z,98858.34
2023-03-08T05:01:56.648Z,98865.22
2023-03-08T05:04:24.464Z,98870.38
2023-03-08T05:06:52.028Z,98868.59
2023-03-08T05:09:23.551Z,98866.78
2023-03-08T05:11:51.537Z,98867.56
2023-03-08T05:14:18.207Z,98877.06
2023-03-08T05:16:44.862Z,98871.88
2023-03-08T05:19:11.644Z,98870.13
2023-03-08T05:21:45.809Z,98867.47
2023-03-08T05:24:13.635Z,98870.88
2023-03-08T05:26:40.339Z,98878.66
2023-03-08T05:29:08.480Z,98871.66
2023-03-08T05:31:37.759Z,98869.03
2023-03-08T05:34:06.212Z,98866.44
2023-03-08T05:36:37.016Z,98873.47
2023-03-08T05:39:06.918Z,98872.72
2023-03-08T05:41:57.043Z,98864.25
2023-03-08T05:44:29.152Z,98864.44
2023-03-08T05:46:58.064Z,98862.84
2023-03-08T05:49:25.693Z,98857.59
2023-03-08T05:51:52.292Z,98853.22
2023-03-08T05:54:20.124Z,98859.31
2023-03-08T05:56:48.778Z,98862.84
2023-03-08T05:59:23.455Z,98847.22
2023-03-08T06:01:50.466Z,98845.53
2023-03-08T06:04:25.076Z,98831.63
2023-03-08T06:06:51.751Z,98840.31
2023-03-08T06:09:21.824Z,98839.44
2023-03-08T06:11:48.373Z,98842.91
2023-03-08T06:14:14.874Z,98841.16
2023-03-08T06:16:41.654Z,98846.34
2023-03-08T06:19:08.579Z,98848.19
2023-03-08T06:21:36.415Z,98846.56
2023-03-08T06:24:04.426Z,98855.44
2023-03-08T06:26:31.180Z,98854.72
2023-03-08T06:28:57.917Z,98855.72
2023-03-08T06:31:28.370Z,98854.13
2023-03-08T06:33:55.564Z,98856.78
2023-03-08T06:36:24.882Z,98860.31
2023-03-08T06:38:51.590Z,98863.81
2023-03-08T06:41:19.544Z,98870.91
2023-03-08T06:43:50.111Z,98864.16
2023-03-08T06:46:18.579Z,98868.66
2023-03-08T06:48:46.454Z,98862.72
2023-03-08T06:51:13.157Z,98866.38
2023-03-08T06:53:43.404Z,98863.91
2023-03-08T06:56:13.435Z,98851.00
2023-03-08T06:58:40.174Z,98847.66
2023-03-08T07:01:07.063Z,98853.00
2023-03-08T07:03:33.879Z,98859.16
2023-03-08T07:06:10.334Z,98859.19
2023-03-08T07:08:38.393Z,98854.13
2023-03-08T07:11:06.735Z,98856.88
2023-03-08T07:13:33.394Z,98854.41
2023-03-08T07:16:00.054Z,98857.22
2023-03-08T07:18:26.700Z,98859.00
2023-03-08T07:20:55.757Z,98858.16
2023-03-08T07:23:23.038Z,98855.53
2023-03-08T07:25:49.700Z,98856.47
2023-03-08T07:28:16.605Z,98850.38
2023-03-08T07:30:51.514Z,98852.16
2023-03-08T07:33:20.538Z,98847.03
2023-03-08T07:35:47.498Z,98841.09
2023-03-08T07:38:14.829Z,98837.75
2023-03-08T07:40:42.311Z,98838.75
2023-03-08T07:43:09.263Z,98829.25
2023-03-08T07:45:54.766Z,98823.22
2023-03-08T07:48:21.280Z,98818.00
2023-03-08T07:50:47.846Z,98824.09
2023-03-08T07:53:15.015Z,98820.63
2023-03-08T07:55:41.505Z,98812.78
2023-03-08T07:58:08.019Z,98808.50
2023-03-08T08:00:34.586Z,98801.56
2023-03-08T08:03:01.177Z,98809.50
2023-03-08T08:05:27.715Z,98799.97
2023-03-08T08:07:54.309Z,98798.31
2023-03-08T08:10:20.903Z,98798.34
2023-03-08T08:12:47.344Z,98790.59
2023-03-08T08:15:13.842Z,98798.53
2023-03-08T08:17:40.283Z,98795.91
2023-03-08T08:20:08.164Z,98792.47
2023-03-08T08:22:38.006Z,98802.09
2023-03-08T08:25:06.582Z,98798.72
2023-03-08T08:27:33.642Z,98791.81
2023-03-08T08:30:00.384Z,98794.47
2023-03-08T08:32:27.269Z,98788.44
2023-03-08T08:34:53.830Z,98789.34
2023-03-08T08:37:20.264Z,98789.41
2023-03-08T08:39:46.808Z,98792.03
2023-03-08T08:42:13.236Z,98783.34
2023-03-08T08:44:39.691Z,98783.34
2023-03-08T08:47:06.125Z,98782.50
2023-03-08T08:49:32.614Z,98783.44
2023-03-08T08:51:59.047Z,98779.13
2023-03-08T08:54:25.593Z,98785.25
2023-03-08T08:56:52.088Z,98786.16
2023-03-08T08:59:18.762Z,98785.28
2023-03-08T09:01:45.259Z,98781.81
2023-03-08T09:04:13.615Z,98780.09
2023-03-08T09:06:40.623Z,98780.97
2023-03-08T09:09:07.248Z,98781.84
2023-03-08T09:11:39.907Z,98779.22
2023-03-08T09:14:15.344Z,98776.63
2023-03-08T09:16:42.060Z,98774.94
2023-03-08T09:19:08.918Z,98767.09
2023-03-08T09:21:36.156Z,98772.34
2023-03-08T09:24:05.653Z,98768.84
2023-03-08T09:26:33.501Z,98768.91
2023-03-08T09:29:05.407Z,98761.88
2023-03-08T09:31:33.407Z,98761.03
2023-03-08T09:34:00.261Z,98754.91
2023-03-08T09:36:28.788Z,98753.16
2023-03-08T09:38:56.256Z,98749.66
2023-03-08T09:41:22.839Z,98741.75
2023-03-08T09:43:55.826Z,98747.00
2023-03-08T09:46:33.955Z,98736.50
2023-03-08T09:49:03.552Z,98729.47
2023-03-08T09:51:36.482Z,98729.47
2023-03-08T09:54:08.276Z,98723.34
2023-03-08T09:56:45.952Z,98718.06
2023-03-08T09:59:16.383Z,98713.66
2023-03-08T10:02:01.195Z,98711.03
2023-03-08T10:05:13.189Z,98706.66
2023-03-08T10:07:58.975Z,98703.13
2023-03-08T10:10:33.725Z,98704.00
2023-03-08T10:13:38.353Z,98690.81
2023-03-08T10:16:11.309Z,98692.56
2023-03-08T10:18:54.808Z,98668.84
2023-03-08T10:21:25.154Z,98667.91
2023-03-08T10:23:59.639Z,98667.00
2023-03-08T10:26:27.385Z,98663.47
2023-03-08T10:28:54.081Z,98652.91
2023-03-08T10:31:29.829Z,98654.59
2023-03-08T10:34:11.016Z,98647.56
2023-03-08T10:36:57.545Z,98644.03
2023-03-08T10:39:24.072Z,98652.81
2023-03-08T10:41:54.442Z,98644.03
2023-03-08T10:44:42.667Z,98644.94
2023-03-08T10:47:36.517Z,98638.88
2023-03-08T10:50:09.266Z,98641.50
2023-03-08T10:52:35.978Z,98631.00
2023-03-08T10:55:13.886Z,98623.16
2023-03-08T10:57:46.065Z,98622.28
2023-03-08T11:00:33.212Z,98619.72
2023-03-08T11:03:19.584Z,98615.38
2023-03-08T11:06:24.899Z,98610.97
2023-03-08T11:09:02.994Z,98609.25
2023-03-08T11:11:41.174Z,98609.25
2023-03-08T11:14:11.020Z,98615.41
2023-03-08T11:16:44.210Z,98617.16
2023-03-08T11:19:43.284Z,98606.69
2023-03-08T11:22:31.528Z,98606.69
2023-03-08T11:25:13.211Z,98604.03
2023-03-08T11:28:17.528Z,98604.97
2023-03-08T11:31:12.605Z,98604.09
2023-03-08T11:34:31.278Z,98601.47
2023-03-08T11:37:13.010Z,98599.75
2023-03-08T11:39:46.355Z,98602.38
2023-03-08T11:42:25.843Z,98598.88
2023-03-08T11:45:07.601Z,98600.63
2023-03-08T11:47:40.121Z,98598.91
2023-03-08T11:50:25.617Z,98589.31
2023-03-08T11:53:18.514Z,98596.31
2023-03-08T11:56:20.420Z,98601.59
2023-03-08T11:58:50.864Z,98595.47
2023-03-08T12:01:22.493Z,98606.84
2023-03-08T12:03:53.544Z,98599.84
2023-03-08T12:06:30.750Z,98595.41
2023-03-08T12:09:05.039Z,98593.66
2023-03-08T12:11:44.400Z,98598.88
2023-03-08T12:14:18.471Z,98600.59
2023-03-08T12:16:54.771Z,98601.44
2023-03-08T12:19:28.846Z,98597.00
2023-03-08T12:22:07.418Z,98596.94
2023-03-08T12:24:46.572Z,98593.44
2023-03-08T12:27:18.469Z,98588.09
2023-03-08T12:29:52.735Z,98593.38
2023-03-08T12:32:20.674Z,98599.56
2023-03-08T12:34:48.333Z,98597.84
2023-03-08T12:37:28.285Z,98594.34
2023-03-08T12:40:41.348Z,98607.53
2023-03-08T12:43:13.974Z,98596.19
2023-03-08T12:45:43.013Z,98599.72
2023-03-08T12:48:18.874Z,98588.31
2023-03-08T12:50:54.199Z,98583.00
2023-03-08T12:53:21.705Z,98584.72
2023-03-08T12:56:00.431Z,98580.28
2023-03-08T12:58:27.297Z,98573.22
2023-03-08T13:01:07.291Z,98575.88
2023-03-08T13:03:38.538Z,98577.69
2023-03-08T13:06:36.519Z,98579.47
2023-03-08T13:09:22.505Z,98575.97
2023-03-08T13:12:01.805Z,98565.44
2023-03-08T13:14:40.576Z,98567.22
2023-03-08T13:17:33.677Z,98569.84
2023-03-08T13:20:14.482Z,98568.16
2023-03-08T13:22:54.037Z,98559.34
2023-03-08T13:25:42.380Z,98559.16
2023-03-08T13:28:20.543Z,98558.25
2023-03-08T13:30:53.526Z,98560.91
2023-03-08T13:33:27.005Z,98555.69
2023-03-08T13:36:05.929Z,98557.53
2023-03-08T13:38:35.942Z,98562.91
2023-03-08T13:41:03.182Z,98570.00
2023-03-08T13:43:31.794Z,98563.09
2023-03-08T13:46:16.559Z,98551.72
2023-03-08T13:48:44.984Z,98551.78
2023-03-08T13:51:17.971Z,98550.91
2023-03-08T13:53:45.321Z,98543.06
2023-03-08T13:56:23.078Z,98554.47
2023-03-08T13:58:50.631Z,98552.72
2023-03-08T14:01:19.842Z,98550.13
2023-03-08T14:03:46.959Z,98548.38
2023-03-08T14:06:29.966Z,98552.78
2023-03-08T14:09:03.250Z,98551.88
2023-03-08T14:11:33.324Z,98548.38
2023-03-08T14:14:02.473Z,98547.50
2023-03-08T14:16:29.141Z,98551.03
2023-03-08T14:18:56.768Z,98543.13
2023-03-08T14:21:30.398Z,98544.06
2023-03-08T14:24:00.185Z,98550.19
2023-03-08T14:26:26.747Z,98535.31
2023-03-08T14:29:11.214Z,98536.19
2023-03-08T14:31:39.122Z,98523.94
2023-03-08T14:34:19.126Z,98528.34
2023-03-08T14:36:55.223Z,98525.72
2023-03-08T14:39:24.147Z,98519.63
2023-03-08T14:41:50.758Z,98521.38
2023-03-08T14:44:21.597Z,98523.06
2023-03-08T14:46:48.479Z,98516.97
2023-03-08T14:49:23.050Z,98513.47
2023-03-08T14:51:49.995Z,98512.63
2023-03-08T14:54:36.212Z,98510.88
2023-03-08T14:57:16.618Z,98508.25
2023-03-08T14:59:43.750Z,98505.59
2023-03-08T15:02:13.354Z,98497.75
2023-03-08T15:04:40.741Z,98497.75
2023-03-08T15:07:07.684Z,98489.88
2023-03-08T15:09:34.865Z,98489.88
2023-03-08T15:12:01.924Z,98487.25
2023-03-08T15:14:30.448Z,98469.81
2023-03-08T15:16:58.222Z,98463.66
2023-03-08T15:19:25.006Z,98468.91
2023-03-08T15:21:51.708Z,98480.25
2023-03-08T15:24:19.325Z,98466.31
2023-03-08T15:26:46.081Z,98469.78
2023-03-08T15:29:30.294Z,98461.03
2023-03-08T15:31:57.680Z,98457.56
2023-03-08T15:34:27.486Z,98455.81
2023-03-08T15:36:55.071Z,98450.56
2023-03-08T15:39:21.689Z,98438.34
2023-03-08T15:41:48.512Z,98441.84
2023-03-08T15:44:14.991Z,98444.47
2023-03-08T15:46:41.572Z,98435.72
2023-03-08T15:49:08.818Z,98448.84
2023-03-08T15:51:37.259Z,98449.69
2023-03-08T15:54:05.740Z,98449.72
2023-03-08T15:56:32.287Z,98454.94
2023-03-08T15:58:58.828Z,98451.44
2023-03-08T16:01:27.086Z,98451.44
2023-03-08T16:03:57.310Z,98459.28
2023-03-08T16:06:24.816Z,98446.19
2023-03-08T16:08:51.353Z,98450.53
2023-03-08T16:11:22.117Z,98446.19
2023-03-08T16:13:51.224Z,98441.81
2023-03-08T16:16:18.497Z,98436.56
2023-03-08T16:18:45.143Z,98442.66
2023-03-08T16:21:11.929Z,98447.88
2023-03-08T16:23:39.630Z,98445.25
2023-03-08T16:26:16.186Z,98444.38
2023-03-08T16:28:45.875Z,98440.00
2023-03-08T16:31:12.935Z,98442.63
2023-03-08T16:33:39.987Z,98444.31
2023-03-08T16:36:06.993Z,98435.59
2023-03-08T16:38:33.519Z,98441.66
2023-03-08T16:41:12.231Z,98442.50
2023-03-08T16:43:47.427Z,98447.72
2023-03-08T16:46:17.531Z,98455.56
2023-03-08T16:48:44.089Z,98463.38
2023-03-08T16:51:15.181Z,98453.75
2023-03-08T16:53:41.926Z,98455.50
2023-03-08T16:56:08.512Z,98458.97
2023-03-08T16:58:35.105Z,98458.97
2023-03-08T17:01:01.597Z,98467.72
2023-03-08T17:03:28.042Z,98462.44
2023-03-08T17:05:54.486Z,98464.22
2023-03-08T17:08:20.951Z,98459.81
2023-03-08T17:10:47.407Z,98452.84
2023-03-08T17:13:13.914Z,98461.59
2023-03-08T17:15:42.876Z,98465.94
2023-03-08T17:18:10.299Z,98461.59
2023-03-08T17:20:41.597Z,98462.47
2023-03-08T17:23:10.029Z,98463.38
2023-03-08T17:25:40.908Z,98452.91
2023-03-08T17:28:08.704Z,98451.19
2023-03-08T17:30:35.523Z,98456.41
2023-03-08T17:33:02.047Z,98465.97
2023-03-08T17:35:28.854Z,98461.59
2023-03-08T17:37:55.463Z,98458.97
2023-03-08T17:40:22.090Z,98465.06
2023-03-08T17:42:48.646Z,98460.72
2023-03-08T17:45:16.261Z,98457.19
2023-03-08T17:47:43.346Z,98466.78
2023-03-08T17:50:13.141Z,98466.78
2023-03-08T17:52:40.650Z,98467.59
2023-03-08T17:55:07.714Z,98472.84
2023-03-08T17:57:36.004Z,98470.22
2023-03-08T18:00:05.490Z,98473.72
2023-03-08T18:02:33.608Z,98464.13
2023-03-08T18:05:00.553Z,98473.69
2023-03-08T18:07:29.239Z,98465.81
2023-03-08T18:09:55.842Z,98464.06
2023-03-08T18:12:22.689Z,98465.78
2023-03-08T18:14:52.415Z,98466.63
2023-03-08T18:17:20.345Z,98471.00
2023-03-08T18:19:47.661Z,98477.06
2023-03-08T18:22:15.091Z,98460.50
2023-03-08T18:24:42.113Z,98451.75
2023-03-08T18:27:08.793Z,98449.97
2023-03-08T18:29:35.938Z,98449.09
2023-03-08T18:32:03.736Z,98453.44
2023-03-08T18:34:30.246Z,98446.41
2023-03-08T18:36:58.789Z,98444.66
2023-03-08T18:39:25.993Z,98442.91
2023-03-08T18:41:56.756Z,98442.00
2023-03-08T18:44:24.304Z,98430.66
2023-03-08T18:46:50.886Z,98434.09
2023-03-08T18:49:17.506Z,98435.84
2023-03-08T18:51:44.332Z,98446.28
2023-03-08T18:54:13.622Z,98449.78
2023-03-08T18:56:40.339Z,98448.00
2023-03-08T18:59:07.993Z,98450.63
2023-03-08T19:01:36.600Z,98447.16
2023-03-08T19:04:06.176Z,98441.06
2023-03-08T19:06:33.118Z,98441.09
2023-03-08T19:08:59.739Z,98432.38
2023-03-08T19:11:28.183Z,98430.66
2023-03-08T19:13:54.757Z,98435.88
2023-03-08T19:16:32.577Z,98442.84
2023-03-08T19:19:02.451Z,98439.34
2023-03-08T19:21:35.065Z,98432.38
2023-03-08T19:24:02.070Z,98433.25
2023-03-08T19:26:37.078Z,98427.16
2023-03-08T19:29:18.527Z,98431.50
2023-03-08T19:32:02.345Z,98441.94
2023-03-08T19:34:31.427Z,98436.72
2023-03-08T19:36:58.815Z,98441.94
2023-03-08T19:39:28.869Z,98429.78
2023-03-08T19:41:57.793Z,98421.94
2023-03-08T19:44:25.115Z,98415.88
2023-03-08T19:46:53.232Z,98417.59
2023-03-08T19:49:22.677Z,98416.72
2023-03-08T19:51:51.341Z,98423.66
2023-03-08T19:54:18.868Z,98417.59
2023-03-08T19:56:45.496Z,98416.69
2023-03-08T19:59:12.332Z,98427.16
2023-03-08T20:01:39.490Z,98425.38
2023-03-08T20:04:06.747Z,98421.94
2023-03-08T20:06:36.612Z,98423.66
2023-03-08T20:09:04.958Z,98418.44
2023-03-08T20:11:31.841Z,98425.44
2023-03-08T20:13:58.685Z,98421.94
2023-03-08T20:16:26.561Z,98421.06
2023-03-08T20:18:55.858Z,98420.16
2023-03-08T20:21:24.237Z,98418.44
2023-03-08T20:23:55.247Z,98416.66
2023-03-08T20:26:23.091Z,98430.59
2023-03-08T20:28:50.976Z,98429.72
2023-03-08T20:31:18.486Z,98429.72
2023-03-08T20:33:46.154Z,98429.72
2023-03-08T20:36:12.886Z,98424.47
2023-03-08T20:38:39.427Z,98434.03
2023-03-08T20:41:11.840Z,98437.53
2023-03-08T20:43:39.216Z,98438.41
2023-03-08T20:46:09.306Z,98434.94
2023-03-08T20:48:37.952Z,98436.69
2023-03-08T20:51:06.018Z,98440.16
2023-03-08T20:53:33.395Z,98438.44
2023-03-08T20:56:04.084Z,98444.53
2023-03-08T20:58:30.555Z,98451.50
2023-03-08T21:00:57.021Z,98448.88
2023-03-08T21:03:23.693Z,98425.38
2023-03-08T21:05:50.212Z,98411.44
2023-03-08T21:08:17.071Z,98426.19
2023-03-08T21:10:43.548Z,98434.03
2023-03-08T21:13:12.903Z,98438.41
2023-03-08T21:15:40.107Z,98433.19
2023-03-08T21:18:06.657Z,98440.16
2023-03-08T21:20:37.270Z,98428.00
2023-03-08T21:23:03.929Z,98426.28
2023-03-08T21:25:34.084Z,98427.16
2023-03-08T21:28:00.617Z,98426.28
2023-03-08T21:30:28.218Z,98411.47
2023-03-08T21:32:54.975Z,98403.66
2023-03-08T21:35:22.879Z,98395.81
2023-03-08T21:37:49.457Z,98388.84
2023-03-08T21:40:16.053Z,98391.44
2023-03-08T21:42:42.514Z,98389.69
2023-03-08T21:45:09.859Z,98382.69
2023-03-08T21:47:36.364Z,98379.19
2023-03-08T21:50:02.976Z,98380.97
2023-03-08T21:52:29.512Z,98374.81
2023-03-08T21:54:56.220Z,98384.34
2023-03-08T21:57:22.742Z,98376.53
2023-03-08T21:59:49.339Z,98365.22
2023-03-08T22:02:15.858Z,98356.50
2023-03-08T22:04:42.318Z,98353.88
2023-03-08T22:07:08.765Z,98363.44
2023-03-08T22:09:35.445Z,98362.56
2023-03-08T22:12:01.994Z,98346.91
2023-03-08T22:14:28.834Z,98340.78
2023-03-08T22:16:56.439Z,98333.84
2023-03-08T22:19:23.018Z,98346.06
2023-03-08T22:21:49.694Z,98350.41
2023-03-08T22:24:16.218Z,98340.84
2023-03-08T22:26:42.723Z,98343.44
2023-03-08T22:29:09.377Z,98336.50
2023-03-08T22:31:35.854Z,98350.41
2023-03-08T22:34:02.465Z,98351.28
2023-03-08T22:36:29.274Z,98346.94
2023-03-08T22:38:55.874Z,98343.47
2023-03-08T22:41:25.645Z,98328.66
2023-03-08T22:43:52.852Z,98325.19
2023-03-08T22:46:22.911Z,98318.22
2023-03-08T22:48:50.286Z,98308.63
2023-03-08T22:51:18.377Z,98311.25
2023-03-08T22:53:45.030Z,98308.63
2023-03-08T22:56:21.122Z,98314.72
2023-03-08T22:58:47.680Z,98309.50
2023-03-08T23:01:16.544Z,98309.50
2023-03-08T23:03:43.799Z,98305.13
2023-03-08T23:06:10.835Z,98311.22
2023-03-08T23:08:37.969Z,98311.22
2023-03-08T23:11:04.709Z,98309.50
2023-03-08T23:13:34.207Z,98303.41
2023-03-08T23:16:01.728Z,98294.72
2023-03-08T23:18:28.280Z,98305.16
2023-03-08T23:20:55.099Z,98308.63
2023-03-08T23:23:25.011Z,98307.78
2023-03-08T23:25:52.056Z,98309.50
2023-03-08T23:28:19.537Z,98315.63
2023-03-08T23:30:46.012Z,98319.13
2023-03-08T23:33:12.472Z,98315.63
2023-03-08T23:35:39.088Z,98313.03
2023-03-08T23:38:05.564Z,98315.63
2023-03-08T23:40:32.178Z,98316.50
2023-03-08T23:42:58.646Z,98313.91
2023-03-08T23:45:25.343Z,98312.16
2023-03-08T23:47:51.788Z,98314.78
2023-03-08T23:50:18.481Z,98313.06
2023-03-08T23:52:45.021Z,98298.28
2023-03-08T23:55:12.228Z,98298.28
2023-03-08T23:57:38.720Z,98303.47
